• Join FlightAware (Why Join?)
  • Login
  • US Flag 
08:46PM EDT


 

Airport Tracker/Info


-or-


 

Live Flight TrackerFlight Track Log ✈ N252TC ✈ 01-May-2014 ✈ KFYE - KGGG

Flight Track Log - Related Links

Times and Time Zones

All times are in EDT time to prevent confusion due to time zone crossing. See the N252TC flight status page for this flight to view local times or setup timezone preferences in your user account.

Time Position Orientation Groundspeed Altitude Reporting Facility
EDT Latitude Longitude Course Direction KTS MPH feet Rate Location/Type
07:42AM 35.1833 -89.4167 270° West 90 104 1,600  Level KMEM
07:43AM 35.1833 -89.4500 270° West 103 119 2,100 660 Climbing KMEM
07:44AM 35.1822 -89.4644 265° West 96 110 2,600 720 Climbing Memphis Center
07:45AM 35.1650 -89.4939 234° Southwest 100 115 3,400 660 Climbing Memphis Center
07:46AM 35.1511 -89.5256 242° Southwest 102 117 4,000 720 Climbing Memphis Center
07:47AM 35.1308 -89.5642 237° Southwest 108 124 4,900 780 Climbing Memphis Center
07:48AM 35.1144 -89.5972 239° Southwest 111 128 5,600 540 Climbing Memphis Center
07:49AM 35.0983 -89.6322 241° Southwest 112 129 6,000 180 Climbing Memphis Center
07:50AM 35.0786 -89.6736 240° Southwest 133 153 6,000  Level Memphis Center
07:51AM 35.0578 -89.7142 238° Southwest 138 159 6,000  Level Memphis Center
07:52AM 35.0375 -89.7553 239° Southwest 139 160 6,000  Level Memphis Center
07:53AM 35.0167 -89.7972 239° Southwest 141 162 6,000  Level Memphis Center
07:54AM 34.9961 -89.8403 240° Southwest 146 168 6,000  Level Memphis Center
07:55AM 34.9694 -89.8906 237° Southwest 146 168 6,000  Level Memphis Center
07:56AM 34.9481 -89.9336 239° Southwest 146 168 6,000  Level Memphis Center
07:57AM 34.9264 -89.9753 238° Southwest 146 168 6,000  Level Memphis Center
07:58AM 34.9047 -90.0183 238° Southwest 147 169 6,000  Level Memphis Center
07:59AM 34.8831 -90.0617 239° Southwest 147 169 6,000  Level Memphis Center
08:00AM 34.8617 -90.1039 238° Southwest 147 169 6,000  Level Memphis Center
08:01AM 34.8400 -90.1458 238° Southwest 147 169 6,000  Level Memphis Center
08:02AM 34.8144 -90.1967 239° Southwest 147 169 6,000  Level Memphis Center
08:03AM 34.7928 -90.2392 238° Southwest 147 169 6,000  Level Memphis Center
08:04AM 34.7711 -90.2819 238° Southwest 147 169 6,000  Level Memphis Center
08:05AM 34.7494 -90.3236 238° Southwest 147 169 6,000  Level Memphis Center
08:06AM 34.7289 -90.3672 240° Southwest 147 169 6,000  Level Memphis Center
08:07AM 34.7058 -90.4092 236° Southwest 147 169 6,000  Level Memphis Center
08:08AM 34.6853 -90.4517 240° Southwest 147 169 6,000  Level Memphis Center
08:09AM 34.6631 -90.4936 237° Southwest 147 169 6,000  Level Memphis Center
08:10AM 34.6378 -90.5436 238° Southwest 147 169 6,000  Level Memphis Center
08:11AM 34.6161 -90.5844 237° Southwest 147 169 6,000  Level Memphis Center
08:12AM 34.5958 -90.6275 240° Southwest 147 169 6,000  Level Memphis Center
08:13AM 34.5744 -90.6689 238° Southwest 147 169 6,000  Level Memphis Center
08:15AM 34.5528 -90.7103 238° Southwest 147 169 6,000  Level Memphis Center
08:16AM 34.5319 -90.7517 239° Southwest 147 169 6,000  Level Memphis Center
08:17AM 34.5094 -90.7925 236° Southwest 147 169 6,000  Level Memphis Center
08:18AM 34.4881 -90.8347 238° Southwest 147 169 6,000  Level Memphis Center
08:19AM 34.4619 -90.8844 238° Southwest 147 169 6,000  Level Memphis Center
08:20AM 34.4408 -90.9256 238° Southwest 147 169 6,000  Level Memphis Center
08:21AM 34.4189 -90.9683 238° Southwest 147 169 6,000  Level Memphis Center
08:22AM 34.3967 -91.0094 237° Southwest 147 169 6,000  Level Memphis Center
08:23AM 34.3756 -91.0508 238° Southwest 147 169 6,000  Level Memphis Center
08:24AM 34.3539 -91.0939 239° Southwest 147 169 6,000  Level Memphis Center
08:25AM 34.3333 -91.1350 239° Southwest 146 168 6,000  Level Memphis Center
08:26AM 34.3114 -91.1756 237° Southwest 146 168 6,000  Level Memphis Center
08:27AM 34.2858 -91.2247 238° Southwest 146 168 6,000  Level Memphis Center
08:28AM 34.2650 -91.2664 239° Southwest 146 168 6,000  Level Memphis Center
08:29AM 34.2414 -91.3119 238° Southwest 146 168 6,000  Level Memphis Center
08:30AM 34.2222 -91.3500 239° Southwest 146 168 6,000  Level Memphis Center
08:31AM 34.2019 -91.3911 239° Southwest 146 168 6,000  Level Memphis Center
08:32AM 34.1814 -91.4328 239° Southwest 146 168 6,000  Level Memphis Center
08:33AM 34.1603 -91.4731 238° Southwest 146 168 6,000  Level Memphis Center
08:34AM 34.1378 -91.5136 236° Southwest 146 168 6,000  Level Memphis Center
08:35AM 34.1136 -91.5558 235° Southwest 144 166 6,000  Level Memphis Center
08:36AM 34.0919 -91.5969 238° Southwest 142 163 6,000  Level Memphis Center
08:37AM 34.0650 -91.6486 238° Southwest 145 167 6,000  Level Memphis Center
08:38AM 34.0467 -91.6831 237° Southwest 148 170 6,000  Level Memphis Center
08:39AM 34.0250 -91.7317 242° Southwest 146 168 6,000  Level Memphis Center
08:40AM 34.0069 -91.7703 241° Southwest 146 168 6,000  Level Memphis Center
08:48AM 33.8403 -92.0931 236° Southwest 176 203 6,000  Level Fort Worth Center
08:49AM 33.8238 -92.0999 236° Southwest  Level FlightAware Approximate
08:49AM 33.8194 -92.1361 240° Southwest 147 169 6,000  Level Memphis Center
08:50AM 33.8017 -92.1394 236° Southwest  Level FlightAware Approximate
08:50AM 33.7958 -92.1781 236° Southwest 149 171 6,100  Level Memphis Center
08:51AM 33.7797 -92.1789 236° Southwest  Level FlightAware Approximate
08:51AM 33.7736 -92.2208 238° Southwest 149 171 6,100  Level Memphis Center
08:52AM 33.7575 -92.2184 236° Southwest  Level FlightAware Approximate
08:52AM 33.7450 -92.2711 236° Southwest 149 171 6,100  Level Memphis Center
08:53AM 33.7354 -92.2579 236° Southwest  Level FlightAware Approximate
08:53AM 33.7214 -92.3131 236° Southwest 150 173 6,100  Level Memphis Center
08:54AM 33.6936 -92.3583 234° Southwest 150 173 6,100 -60 Level Memphis Center
08:58AM 33.6189 -92.4994 237° Southwest 149 171 6,000 -60 Descending Memphis Center
08:59AM 33.5911 -92.5511 237° Southwest 150 173 6,000  Level Memphis Center
09:00AM 33.5678 -92.5919 236° Southwest 150 173 6,000  Level Memphis Center
09:01AM 33.5394 -92.6431 236° Southwest 150 173 6,000  Level Fort Worth Center
09:02AM 33.5175 -92.6861 239° Southwest 151 174 6,000  Level Fort Worth Center
09:03AM 33.4953 -92.6864 237° Southwest  Level FlightAware Approximate
09:03AM 33.4925 -92.7289 235° Southwest 151 174 6,000  Level Fort Worth Center
09:04AM 33.4683 -92.7728 237° Southwest 152 175 6,000  Level Fort Worth Center
09:05AM 33.4450 -92.8175 238° Southwest 154 177 6,000  Level Fort Worth Center
09:06AM 33.4206 -92.8614 236° Southwest 155 178 6,000  Level Fort Worth Center
09:07AM 33.3967 -92.9064 238° Southwest 156 180 6,000  Level Fort Worth Center
09:08AM 33.3667 -92.9586 235° Southwest 156 180 6,000  Level Fort Worth Center
09:09AM 33.3431 -93.0025 237° Southwest 156 180 6,000  Level Fort Worth Center
09:10AM 33.3183 -93.0461 236° Southwest 156 180 6,000  Level Fort Worth Center
09:11AM 33.2944 -93.0894 237° Southwest 156 180 6,000  Level Fort Worth Center
09:12AM 33.2706 -93.1336 237° Southwest 156 180 6,000  Level Fort Worth Center
09:13AM 33.2464 -93.1772 236° Southwest 156 180 6,000  Level Fort Worth Center
09:14AM 33.2181 -93.2297 237° Southwest 156 180 6,000  Level Fort Worth Center
09:15AM 33.1950 -93.2686 235° Southwest 154 177 6,000  Level Fort Worth Center
09:15AM 33.1914 -93.2789 247° West 154 177 6,000  Level Fort Worth Center
09:16AM 33.1700 -93.3144 234° Southwest 156 180 6,000  Level Fort Worth Center
09:17AM 33.1464 -93.3567 236° Southwest 156 180 6,000  Level Fort Worth Center
09:18AM 33.1197 -93.4069 238° Southwest 156 180 6,000 -60 Level Fort Worth Center
09:24AM 32.9872 -93.6433 237° Southwest 153 176 5,800 -60 Descending FlightAware ADS-B (KDTN)
09:24AM 32.9799 -93.6572 237° Southwest 155 178 5,800  Level FlightAware ADS-B (KDTN)
09:24AM 32.9723 -93.6711 237° Southwest 155 178 5,800  Level FlightAware ADS-B (KDTN)
09:25AM 32.9643 -93.6852 236° Southwest 155 178 5,800  Level FlightAware ADS-B (KDTN)
09:25AM 32.9558 -93.7000 236° Southwest 156 180 5,800  Level FlightAware ADS-B (KDTN)
09:26AM 32.9360 -93.7353 236° Southwest 156 180 5,800  Level FlightAware ADS-B (KDTN)
09:26AM 32.9277 -93.7500 237° Southwest 156 180 5,800  Level FlightAware ADS-B (KDTN)
09:27AM 32.9200 -93.7640 237° Southwest 155 178 5,800  Level FlightAware ADS-B (KDTN)
09:27AM 32.9136 -93.7757 237° Southwest 156 180 5,800  Level FlightAware ADS-B (KDTN)
09:27AM 32.9039 -93.7925 234° Southwest 156 180 5,800  Level FlightAware ADS-B (KDTN)
09:28AM 32.8955 -93.8063 235° Southwest 156 180 5,800  Level FlightAware ADS-B (KDTN)
09:28AM 32.8874 -93.8206 237° Southwest 154 177 5,800  Level FlightAware ADS-B (KDTN)
09:28AM 32.8801 -93.8346 238° Southwest 155 178 5,800  Level FlightAware ADS-B (KDTN)
09:29AM 32.8730 -93.8480 237° Southwest 154 177 5,800  Level FlightAware ADS-B (KDTN)
09:29AM 32.8643 -93.8637 236° Southwest 156 180 5,800  Level FlightAware ADS-B (KDTN)
09:30AM 32.8447 -93.8972 236° Southwest 156 180 5,800  Level FlightAware ADS-B (KDTN)
09:30AM 32.8359 -93.9131 237° Southwest 156 180 5,800  Level FlightAware ADS-B (KDTN)
09:30AM 32.8280 -93.9276 237° Southwest 155 178 5,800  Level FlightAware ADS-B (KDTN)
09:31AM 32.8201 -93.9416 236° Southwest 156 180 5,800  Level FlightAware ADS-B (KDTN)
09:31AM 32.8042 -93.9693 237° Southwest 155 178 5,800  Level FlightAware ADS-B (KDTN)
09:32AM 32.7958 -93.9842 236° Southwest 155 178 5,800  Level FlightAware ADS-B (KDTN)
09:32AM 32.7880 -93.9982 237° Southwest 155 178 5,800  Level FlightAware ADS-B (KDTN)
09:32AM 32.7807 -94.0112 236° Southwest 155 178 5,800  Level FlightAware ADS-B (KDTN)
09:33AM 32.7748 -94.0217 236° Southwest 155 178 5,800 180 Level FlightAware ADS-B (KDTN)
09:33AM 32.7578 -94.0522 236° Southwest 157 181 6,000  Climbing Fort Worth Center
09:39AM 32.6288 -94.2842 254° West 150 173 5,800 -60 Descending FlightAware ADS-B (KDTN)
09:40AM 32.6217 -94.3274 257° West 149 171 5,800  Level FlightAware ADS-B (KDTN)
09:40AM 32.6190 -94.3413 257° West 148 170 5,800 120 Level FlightAware ADS-B (KDTN)
09:41AM 32.6125 -94.3867 257° West 145 167 6,000 60 Climbing Fort Worth Center
09:42AM 32.6039 -94.4361 258° West 146 168 6,000  Level Fort Worth Center
09:43AM 32.5928 -94.4850 255° West 149 171 6,000 -180 Level Fort Worth Center
09:44AM 32.5850 -94.5397 260° West 151 174 5,700 -360 Descending Fort Worth Center
09:45AM 32.5769 -94.5858 258° West 156 180 5,300 -420 Descending Fort Worth Center
09:46AM 32.5675 -94.6386 258° West 158 182 4,900 -540 Descending Fort Worth Center
09:47AM 32.5736 -94.6875 278° West 158 182 4,300 -540 Descending Fort Worth Center
09:48AM 32.5839 -94.7469 282° West 158 182 3,900 -360 Descending Fort Worth Center
09:49AM 32.5811 -94.7975 266° West 156 180 3,600 -360 Descending Fort Worth Center
09:50AM 32.5658 -94.8475 250° West 158 182 3,200 -480 Descending Fort Worth Center
09:51AM 32.5256 -94.8728 208° Southwest 163 188 2,700 -360 Descending Fort Worth Center
09:52AM 32.4833 -94.8411 148° Southeast 181 208 2,500 -240 Descending Fort Worth Center
09:53AM 32.4578 -94.7983 125° Southeast 174 200 2,300 -240 Descending Fort Worth Center